sensor_id;sensor_type;location;lat;lon;timestamp;P1;durP1;ratioP1;P2;durP2;ratioP2
74495;SDS011;62979;55.720;37.606;2023-04-03T00:00:49;7.60;;;5.00;;
74495;SDS011;62979;55.720;37.606;2023-04-03T00:03:16;8.70;;;4.45;;
74495;SDS011;62979;55.720;37.606;2023-04-03T00:05:43;9.15;;;5.40;;
74495;SDS011;62979;55.720;37.606;2023-04-03T00:08:12;14.00;;;5.70;;
74495;SDS011;62979;55.720;37.606;2023-04-03T00:10:39;7.70;;;5.22;;
74495;SDS011;62979;55.720;37.606;2023-04-03T00:15:36;11.07;;;5.20;;
74495;SDS011;62979;55.720;37.606;2023-04-03T00:18:04;8.82;;;5.03;;
74495;SDS011;62979;55.720;37.606;2023-04-03T00:20:32;7.47;;;5.25;;
74495;SDS011;62979;55.720;37.606;2023-04-03T00:22:59;7.70;;;5.30;;
74495;SDS011;62979;55.720;37.606;2023-04-03T00:27:54;9.80;;;4.88;;
74495;SDS011;62979;55.720;37.606;2023-04-03T00:30:22;10.90;;;4.78;;
74495;SDS011;62979;55.720;37.606;2023-04-03T00:32:50;7.68;;;5.35;;
74495;SDS011;62979;55.720;37.606;2023-04-03T00:35:19;8.60;;;5.20;;
74495;SDS011;62979;55.720;37.606;2023-04-03T00:37:47;6.72;;;4.57;;
74495;SDS011;62979;55.720;37.606;2023-04-03T00:40:18;8.98;;;5.18;;
74495;SDS011;62979;55.720;37.606;2023-04-03T00:42:48;7.55;;;4.80;;
74495;SDS011;62979;55.720;37.606;2023-04-03T00:45:27;7.45;;;4.65;;
74495;SDS011;62979;55.720;37.606;2023-04-03T00:48:01;8.73;;;5.22;;
74495;SDS011;62979;55.720;37.606;2023-04-03T00:50:34;7.53;;;5.22;;
74495;SDS011;62979;55.720;37.606;2023-04-03T00:53:04;7.28;;;5.68;;
74495;SDS011;62979;55.720;37.606;2023-04-03T00:55:34;8.80;;;5.13;;
74495;SDS011;62979;55.720;37.606;2023-04-03T00:58:04;7.22;;;4.82;;
74495;SDS011;62979;55.720;37.606;2023-04-03T01:00:34;7.40;;;4.63;;
74495;SDS011;62979;55.720;37.606;2023-04-03T01:03:05;8.50;;;5.65;;
74495;SDS011;62979;55.720;37.606;2023-04-03T01:05:32;5.82;;;4.55;;
74495;SDS011;62979;55.720;37.606;2023-04-03T01:07:59;6.55;;;5.05;;
74495;SDS011;62979;55.720;37.606;2023-04-03T01:12:54;7.53;;;5.28;;
74495;SDS011;62979;55.720;37.606;2023-04-03T01:15:22;9.20;;;5.43;;
74495;SDS011;62979;55.720;37.606;2023-04-03T01:17:56;6.32;;;4.72;;
74495;SDS011;62979;55.720;37.606;2023-04-03T01:20:34;7.50;;;5.45;;
74495;SDS011;62979;55.720;37.606;2023-04-03T01:23:40;8.70;;;5.70;;
74495;SDS011;62979;55.720;37.606;2023-04-03T01:26:23;11.20;;;5.43;;
74495;SDS011;62979;55.720;37.606;2023-04-03T01:31:20;8.18;;;5.60;;
74495;SDS011;62979;55.720;37.606;2023-04-03T01:33:54;11.68;;;5.43;;
74495;SDS011;62979;55.720;37.606;2023-04-03T01:36:22;9.32;;;5.90;;
74495;SDS011;62979;55.720;37.606;2023-04-03T01:38:52;6.95;;;5.38;;
74495;SDS011;62979;55.720;37.606;2023-04-03T01:41:20;7.88;;;5.47;;
74495;SDS011;62979;55.720;37.606;2023-04-03T01:43:48;7.93;;;5.38;;
74495;SDS011;62979;55.720;37.606;2023-04-03T01:46:16;7.05;;;5.07;;
74495;SDS011;62979;55.720;37.606;2023-04-03T01:48:43;8.43;;;5.65;;
74495;SDS011;62979;55.720;37.606;2023-04-03T01:51:11;6.53;;;4.80;;
74495;SDS011;62979;55.720;37.606;2023-04-03T01:53:39;8.05;;;5.45;;
74495;SDS011;62979;55.720;37.606;2023-04-03T01:56:06;8.55;;;5.35;;
74495;SDS011;62979;55.720;37.606;2023-04-03T01:58:33;10.68;;;6.18;;
74495;SDS011;62979;55.720;37.606;2023-04-03T02:01:00;9.18;;;5.80;;
74495;SDS011;62979;55.720;37.606;2023-04-03T02:03:27;9.93;;;5.35;;
74495;SDS011;62979;55.720;37.606;2023-04-03T02:05:54;13.80;;;7.15;;
74495;SDS011;62979;55.720;37.606;2023-04-03T02:08:23;9.57;;;6.30;;
74495;SDS011;62979;55.720;37.606;2023-04-03T02:10:50;9.98;;;7.38;;
74495;SDS011;62979;55.720;37.606;2023-04-03T02:13:17;11.00;;;5.95;;
74495;SDS011;62979;55.720;37.606;2023-04-03T02:15:45;13.30;;;6.65;;
74495;SDS011;62979;55.720;37.606;2023-04-03T02:18:13;9.20;;;5.72;;
74495;SDS011;62979;55.720;37.606;2023-04-03T02:20:40;10.38;;;6.75;;
74495;SDS011;62979;55.720;37.606;2023-04-03T02:23:07;7.40;;;5.47;;
74495;SDS011;62979;55.720;37.606;2023-04-03T02:25:35;10.23;;;6.50;;
74495;SDS011;62979;55.720;37.606;2023-04-03T02:28:02;9.40;;;6.38;;
74495;SDS011;62979;55.720;37.606;2023-04-03T02:30:29;9.98;;;6.65;;
74495;SDS011;62979;55.720;37.606;2023-04-03T02:32:56;14.55;;;7.60;;
74495;SDS011;62979;55.720;37.606;2023-04-03T02:35:23;11.27;;;6.80;;
74495;SDS011;62979;55.720;37.606;2023-04-03T02:37:51;9.00;;;6.85;;
74495;SDS011;62979;55.720;37.606;2023-04-03T02:40:18;15.88;;;7.68;;
74495;SDS011;62979;55.720;37.606;2023-04-03T02:42:46;12.43;;;8.15;;
74495;SDS011;62979;55.720;37.606;2023-04-03T02:45:13;12.52;;;7.55;;
74495;SDS011;62979;55.720;37.606;2023-04-03T02:47:40;10.35;;;7.60;;
74495;SDS011;62979;55.720;37.606;2023-04-03T02:50:07;12.55;;;7.43;;
74495;SDS011;62979;55.720;37.606;2023-04-03T02:52:35;15.48;;;8.73;;
74495;SDS011;62979;55.720;37.606;2023-04-03T02:55:02;10.43;;;7.28;;
74495;SDS011;62979;55.720;37.606;2023-04-03T02:57:30;16.02;;;9.07;;
74495;SDS011;62979;55.720;37.606;2023-04-03T02:59:58;10.57;;;8.00;;
74495;SDS011;62979;55.720;37.606;2023-04-03T03:02:25;14.15;;;8.13;;
74495;SDS011;62979;55.720;37.606;2023-04-03T03:04:52;11.35;;;7.82;;
74495;SDS011;62979;55.720;37.606;2023-04-03T03:07:19;18.00;;;9.50;;
74495;SDS011;62979;55.720;37.606;2023-04-03T03:09:47;17.27;;;9.20;;
74495;SDS011;62979;55.720;37.606;2023-04-03T03:12:14;12.27;;;7.93;;
74495;SDS011;62979;55.720;37.606;2023-04-03T03:14:46;11.85;;;9.38;;
74495;SDS011;62979;55.720;37.606;2023-04-03T03:17:14;14.63;;;9.05;;
74495;SDS011;62979;55.720;37.606;2023-04-03T03:19:42;16.60;;;8.38;;
74495;SDS011;62979;55.720;37.606;2023-04-03T03:22:10;10.90;;;8.43;;
74495;SDS011;62979;55.720;37.606;2023-04-03T03:24:38;17.50;;;8.43;;
74495;SDS011;62979;55.720;37.606;2023-04-03T03:27:04;14.27;;;8.80;;
74495;SDS011;62979;55.720;37.606;2023-04-03T03:29:31;13.52;;;8.77;;
74495;SDS011;62979;55.720;37.606;2023-04-03T03:31:58;13.20;;;9.70;;
74495;SDS011;62979;55.720;37.606;2023-04-03T03:34:26;16.05;;;8.40;;
74495;SDS011;62979;55.720;37.606;2023-04-03T03:36:53;13.43;;;8.68;;
74495;SDS011;62979;55.720;37.606;2023-04-03T03:39:20;15.18;;;9.07;;
74495;SDS011;62979;55.720;37.606;2023-04-03T03:41:47;13.43;;;8.23;;
74495;SDS011;62979;55.720;37.606;2023-04-03T03:44:15;12.82;;;8.10;;
74495;SDS011;62979;55.720;37.606;2023-04-03T03:46:42;12.05;;;8.75;;
74495;SDS011;62979;55.720;37.606;2023-04-03T03:49:09;12.38;;;8.45;;
74495;SDS011;62979;55.720;37.606;2023-04-03T03:51:37;14.93;;;10.82;;
74495;SDS011;62979;55.720;37.606;2023-04-03T03:54:05;14.00;;;9.02;;
74495;SDS011;62979;55.720;37.606;2023-04-03T03:56:33;10.80;;;8.90;;
74495;SDS011;62979;55.720;37.606;2023-04-03T03:59:00;14.70;;;8.82;;
74495;SDS011;62979;55.720;37.606;2023-04-03T04:01:27;12.50;;;8.32;;
74495;SDS011;62979;55.720;37.606;2023-04-03T04:03:54;19.30;;;9.32;;
74495;SDS011;62979;55.720;37.606;2023-04-03T04:06:21;14.38;;;9.35;;
74495;SDS011;62979;55.720;37.606;2023-04-03T04:08:50;12.80;;;7.97;;
74495;SDS011;62979;55.720;37.606;2023-04-03T04:11:17;16.83;;;10.38;;
74495;SDS011;62979;55.720;37.606;2023-04-03T04:13:44;15.55;;;10.20;;
74495;SDS011;62979;55.720;37.606;2023-04-03T04:16:11;13.50;;;8.73;;
74495;SDS011;62979;55.720;37.606;2023-04-03T04:18:38;10.63;;;7.85;;
74495;SDS011;62979;55.720;37.606;2023-04-03T04:21:05;17.30;;;8.77;;
74495;SDS011;62979;55.720;37.606;2023-04-03T04:23:32;13.68;;;8.23;;
74495;SDS011;62979;55.720;37.606;2023-04-03T04:26:00;15.82;;;8.48;;
74495;SDS011;62979;55.720;37.606;2023-04-03T04:28:27;19.23;;;8.57;;
74495;SDS011;62979;55.720;37.606;2023-04-03T04:30:54;15.45;;;9.50;;
74495;SDS011;62979;55.720;37.606;2023-04-03T04:33:21;19.20;;;10.27;;
74495;SDS011;62979;55.720;37.606;2023-04-03T04:35:48;14.32;;;8.35;;
74495;SDS011;62979;55.720;37.606;2023-04-03T04:38:16;13.48;;;8.95;;
74495;SDS011;62979;55.720;37.606;2023-04-03T04:40:43;16.55;;;7.95;;
74495;SDS011;62979;55.720;37.606;2023-04-03T04:43:12;12.40;;;7.28;;
74495;SDS011;62979;55.720;37.606;2023-04-03T04:45:39;17.17;;;7.32;;
74495;SDS011;62979;55.720;37.606;2023-04-03T04:48:06;12.13;;;7.35;;
74495;SDS011;62979;55.720;37.606;2023-04-03T04:53:01;12.90;;;7.75;;
74495;SDS011;62979;55.720;37.606;2023-04-03T04:55:29;17.45;;;8.05;;
74495;SDS011;62979;55.720;37.606;2023-04-03T04:57:56;13.52;;;7.32;;
74495;SDS011;62979;55.720;37.606;2023-04-03T05:00:24;12.40;;;6.90;;
74495;SDS011;62979;55.720;37.606;2023-04-03T05:02:51;13.30;;;7.20;;
74495;SDS011;62979;55.720;37.606;2023-04-03T05:05:20;15.75;;;8.10;;
74495;SDS011;62979;55.720;37.606;2023-04-03T05:07:48;14.32;;;8.32;;
74495;SDS011;62979;55.720;37.606;2023-04-03T05:10:15;14.20;;;8.13;;
74495;SDS011;62979;55.720;37.606;2023-04-03T05:12:42;13.13;;;8.15;;
74495;SDS011;62979;55.720;37.606;2023-04-03T05:15:09;12.85;;;8.20;;
74495;SDS011;62979;55.720;37.606;2023-04-03T05:17:38;14.68;;;7.40;;
74495;SDS011;62979;55.720;37.606;2023-04-03T05:20:05;15.68;;;7.40;;
74495;SDS011;62979;55.720;37.606;2023-04-03T05:22:33;15.23;;;7.63;;
74495;SDS011;62979;55.720;37.606;2023-04-03T05:25:00;14.00;;;9.75;;
74495;SDS011;62979;55.720;37.606;2023-04-03T05:27:27;12.80;;;7.25;;
74495;SDS011;62979;55.720;37.606;2023-04-03T05:29:54;14.10;;;7.78;;
74495;SDS011;62979;55.720;37.606;2023-04-03T05:32:22;15.02;;;7.47;;
74495;SDS011;62979;55.720;37.606;2023-04-03T05:34:53;15.05;;;6.93;;
74495;SDS011;62979;55.720;37.606;2023-04-03T05:37:20;17.27;;;7.18;;
74495;SDS011;62979;55.720;37.606;2023-04-03T05:39:47;15.73;;;9.00;;
74495;SDS011;62979;55.720;37.606;2023-04-03T05:42:14;17.55;;;8.55;;
74495;SDS011;62979;55.720;37.606;2023-04-03T05:44:41;15.90;;;8.02;;
74495;SDS011;62979;55.720;37.606;2023-04-03T05:47:08;14.02;;;6.93;;
74495;SDS011;62979;55.720;37.606;2023-04-03T05:49:35;15.07;;;7.57;;
74495;SDS011;62979;55.720;37.606;2023-04-03T05:52:08;15.00;;;7.57;;
74495;SDS011;62979;55.720;37.606;2023-04-03T05:54:46;10.57;;;6.75;;
74495;SDS011;62979;55.720;37.606;2023-04-03T05:57:13;13.50;;;7.40;;
74495;SDS011;62979;55.720;37.606;2023-04-03T05:59:41;15.32;;;8.30;;
74495;SDS011;62979;55.720;37.606;2023-04-03T06:02:10;16.38;;;7.88;;
74495;SDS011;62979;55.720;37.606;2023-04-03T06:04:39;17.02;;;8.27;;
74495;SDS011;62979;55.720;37.606;2023-04-03T06:07:10;16.08;;;8.27;;
74495;SDS011;62979;55.720;37.606;2023-04-03T06:12:08;14.20;;;8.10;;
74495;SDS011;62979;55.720;37.606;2023-04-03T06:14:36;18.58;;;8.63;;
74495;SDS011;62979;55.720;37.606;2023-04-03T06:17:03;18.48;;;9.23;;
74495;SDS011;62979;55.720;37.606;2023-04-03T06:19:31;15.93;;;8.60;;
74495;SDS011;62979;55.720;37.606;2023-04-03T06:21:58;16.52;;;8.80;;
74495;SDS011;62979;55.720;37.606;2023-04-03T06:24:26;19.15;;;7.25;;
74495;SDS011;62979;55.720;37.606;2023-04-03T06:26:54;13.82;;;7.07;;
74495;SDS011;62979;55.720;37.606;2023-04-03T06:29:21;9.88;;;6.45;;
74495;SDS011;62979;55.720;37.606;2023-04-03T06:31:48;14.20;;;7.10;;
74495;SDS011;62979;55.720;37.606;2023-04-03T06:34:16;17.00;;;8.32;;
74495;SDS011;62979;55.720;37.606;2023-04-03T06:36:43;17.27;;;8.77;;
74495;SDS011;62979;55.720;37.606;2023-04-03T06:41:42;13.82;;;7.60;;
74495;SDS011;62979;55.720;37.606;2023-04-03T06:44:09;13.68;;;7.22;;
74495;SDS011;62979;55.720;37.606;2023-04-03T06:46:38;14.18;;;7.90;;
74495;SDS011;62979;55.720;37.606;2023-04-03T06:49:05;14.93;;;7.85;;
74495;SDS011;62979;55.720;37.606;2023-04-03T06:54:00;17.00;;;7.65;;
74495;SDS011;62979;55.720;37.606;2023-04-03T06:56:29;13.45;;;8.18;;
74495;SDS011;62979;55.720;37.606;2023-04-03T06:58:58;23.45;;;9.70;;
74495;SDS011;62979;55.720;37.606;2023-04-03T07:01:25;14.50;;;8.18;;
74495;SDS011;62979;55.720;37.606;2023-04-03T07:03:55;21.15;;;9.20;;
74495;SDS011;62979;55.720;37.606;2023-04-03T07:08:52;20.75;;;7.95;;
74495;SDS011;62979;55.720;37.606;2023-04-03T07:11:19;18.60;;;7.35;;
74495;SDS011;62979;55.720;37.606;2023-04-03T07:13:47;12.75;;;7.85;;
74495;SDS011;62979;55.720;37.606;2023-04-03T07:16:15;21.45;;;9.75;;
74495;SDS011;62979;55.720;37.606;2023-04-03T07:18:42;24.17;;;9.13;;
74495;SDS011;62979;55.720;37.606;2023-04-03T07:21:09;19.83;;;9.23;;
74495;SDS011;62979;55.720;37.606;2023-04-03T07:23:37;23.67;;;10.00;;
74495;SDS011;62979;55.720;37.606;2023-04-03T07:26:05;15.88;;;8.88;;
74495;SDS011;62979;55.720;37.606;2023-04-03T07:28:33;22.20;;;9.90;;
74495;SDS011;62979;55.720;37.606;2023-04-03T07:33:31;17.25;;;8.93;;
74495;SDS011;62979;55.720;37.606;2023-04-03T07:35:58;20.38;;;10.07;;
74495;SDS011;62979;55.720;37.606;2023-04-03T07:38:25;16.50;;;8.80;;
74495;SDS011;62979;55.720;37.606;2023-04-03T07:40:53;20.45;;;10.38;;
74495;SDS011;62979;55.720;37.606;2023-04-03T07:43:20;15.90;;;10.15;;
74495;SDS011;62979;55.720;37.606;2023-04-03T07:45:49;19.33;;;8.60;;
74495;SDS011;62979;55.720;37.606;2023-04-03T07:48:17;17.30;;;9.20;;
74495;SDS011;62979;55.720;37.606;2023-04-03T07:50:47;18.08;;;8.38;;
74495;SDS011;62979;55.720;37.606;2023-04-03T07:53:15;12.05;;;8.38;;
74495;SDS011;62979;55.720;37.606;2023-04-03T07:55:42;24.27;;;9.35;;
74495;SDS011;62979;55.720;37.606;2023-04-03T07:58:12;20.88;;;9.02;;
74495;SDS011;62979;55.720;37.606;2023-04-03T08:00:41;22.77;;;9.02;;
74495;SDS011;62979;55.720;37.606;2023-04-03T08:03:09;12.80;;;9.18;;
74495;SDS011;62979;55.720;37.606;2023-04-03T08:05:37;17.92;;;9.52;;
74495;SDS011;62979;55.720;37.606;2023-04-03T08:08:06;19.42;;;10.02;;
74495;SDS011;62979;55.720;37.606;2023-04-03T08:10:34;19.65;;;9.90;;
74495;SDS011;62979;55.720;37.606;2023-04-03T08:13:02;18.63;;;10.68;;
74495;SDS011;62979;55.720;37.606;2023-04-03T08:15:31;22.70;;;10.95;;
74495;SDS011;62979;55.720;37.606;2023-04-03T08:17:58;18.10;;;9.75;;
74495;SDS011;62979;55.720;37.606;2023-04-03T08:20:26;17.23;;;9.27;;
74495;SDS011;62979;55.720;37.606;2023-04-03T08:22:53;21.80;;;10.18;;
74495;SDS011;62979;55.720;37.606;2023-04-03T08:25:22;20.73;;;10.45;;
74495;SDS011;62979;55.720;37.606;2023-04-03T08:27:48;19.58;;;11.45;;
74495;SDS011;62979;55.720;37.606;2023-04-03T08:30:16;20.83;;;11.02;;
74495;SDS011;62979;55.720;37.606;2023-04-03T08:32:43;21.80;;;10.68;;
74495;SDS011;62979;55.720;37.606;2023-04-03T08:35:10;23.25;;;10.38;;
74495;SDS011;62979;55.720;37.606;2023-04-03T08:37:38;19.55;;;10.70;;
74495;SDS011;62979;55.720;37.606;2023-04-03T08:40:07;25.33;;;10.73;;
74495;SDS011;62979;55.720;37.606;2023-04-03T08:42:44;22.73;;;12.23;;
74495;SDS011;62979;55.720;37.606;2023-04-03T08:45:32;28.20;;;11.70;;
74495;SDS011;62979;55.720;37.606;2023-04-03T08:48:11;23.90;;;10.10;;
74495;SDS011;62979;55.720;37.606;2023-04-03T08:50:46;23.90;;;10.30;;
74495;SDS011;62979;55.720;37.606;2023-04-03T08:53:20;26.27;;;10.77;;
74495;SDS011;62979;55.720;37.606;2023-04-03T08:55:53;18.33;;;11.27;;
74495;SDS011;62979;55.720;37.606;2023-04-03T08:58:25;25.58;;;11.95;;
74495;SDS011;62979;55.720;37.606;2023-04-03T09:00:56;20.67;;;12.10;;
74495;SDS011;62979;55.720;37.606;2023-04-03T09:03:29;21.55;;;11.98;;
74495;SDS011;62979;55.720;37.606;2023-04-03T09:06:00;23.63;;;13.23;;
74495;SDS011;62979;55.720;37.606;2023-04-03T09:08:32;28.20;;;13.23;;
74495;SDS011;62979;55.720;37.606;2023-04-03T09:11:09;25.67;;;11.95;;
74495;SDS011;62979;55.720;37.606;2023-04-03T09:13:48;23.30;;;9.88;;
74495;SDS011;62979;55.720;37.606;2023-04-03T09:16:28;26.10;;;11.98;;
74495;SDS011;62979;55.720;37.606;2023-04-03T09:19:13;24.38;;;11.10;;
74495;SDS011;62979;55.720;37.606;2023-04-03T09:21:51;25.67;;;12.27;;
74495;SDS011;62979;55.720;37.606;2023-04-03T09:24:22;17.10;;;10.93;;
74495;SDS011;62979;55.720;37.606;2023-04-03T09:26:51;23.10;;;12.40;;
74495;SDS011;62979;55.720;37.606;2023-04-03T09:29:26;28.63;;;11.38;;
74495;SDS011;62979;55.720;37.606;2023-04-03T09:31:56;19.70;;;12.25;;
74495;SDS011;62979;55.720;37.606;2023-04-03T09:34:27;18.85;;;11.63;;
74495;SDS011;62979;55.720;37.606;2023-04-03T09:36:59;19.60;;;10.32;;
74495;SDS011;62979;55.720;37.606;2023-04-03T09:39:31;17.70;;;9.77;;
74495;SDS011;62979;55.720;37.606;2023-04-03T09:42:16;19.98;;;10.30;;
74495;SDS011;62979;55.720;37.606;2023-04-03T09:44:52;20.42;;;11.15;;
74495;SDS011;62979;55.720;37.606;2023-04-03T09:47:24;26.23;;;10.88;;
74495;SDS011;62979;55.720;37.606;2023-04-03T09:50:08;24.65;;;10.05;;
74495;SDS011;62979;55.720;37.606;2023-04-03T09:52:46;20.35;;;9.57;;
74495;SDS011;62979;55.720;37.606;2023-04-03T09:55:18;19.17;;;11.25;;
74495;SDS011;62979;55.720;37.606;2023-04-03T09:57:52;28.83;;;14.68;;
74495;SDS011;62979;55.720;37.606;2023-04-03T10:00:22;24.55;;;10.88;;
74495;SDS011;62979;55.720;37.606;2023-04-03T10:02:54;14.73;;;8.65;;
74495;SDS011;62979;55.720;37.606;2023-04-03T10:05:31;19.50;;;9.38;;
74495;SDS011;62979;55.720;37.606;2023-04-03T10:08:08;17.85;;;11.23;;
74495;SDS011;62979;55.720;37.606;2023-04-03T10:10:46;22.00;;;12.70;;
74495;SDS011;62979;55.720;37.606;2023-04-03T10:13:30;20.48;;;9.70;;
74495;SDS011;62979;55.720;37.606;2023-04-03T10:18:32;14.40;;;9.07;;
74495;SDS011;62979;55.720;37.606;2023-04-03T10:21:09;18.38;;;9.52;;
74495;SDS011;62979;55.720;37.606;2023-04-03T10:23:42;12.20;;;9.23;;
74495;SDS011;62979;55.720;37.606;2023-04-03T10:26:20;16.73;;;8.32;;
74495;SDS011;62979;55.720;37.606;2023-04-03T10:29:02;14.10;;;8.95;;
74495;SDS011;62979;55.720;37.606;2023-04-03T10:31:50;20.13;;;9.15;;
74495;SDS011;62979;55.720;37.606;2023-04-03T10:34:28;18.98;;;8.90;;
74495;SDS011;62979;55.720;37.606;2023-04-03T10:37:04;15.43;;;7.13;;
74495;SDS011;62979;55.720;37.606;2023-04-03T10:39:44;17.10;;;8.30;;
74495;SDS011;62979;55.720;37.606;2023-04-03T10:42:22;10.35;;;6.82;;
74495;SDS011;62979;55.720;37.606;2023-04-03T10:45:06;18.20;;;9.02;;
74495;SDS011;62979;55.720;37.606;2023-04-03T10:47:54;17.42;;;7.57;;
74495;SDS011;62979;55.720;37.606;2023-04-03T10:50:36;20.50;;;8.25;;
74495;SDS011;62979;55.720;37.606;2023-04-03T10:53:17;18.27;;;7.95;;
74495;SDS011;62979;55.720;37.606;2023-04-03T10:55:59;14.25;;;8.27;;
74495;SDS011;62979;55.720;37.606;2023-04-03T10:58:38;17.17;;;8.05;;
74495;SDS011;62979;55.720;37.606;2023-04-03T11:01:11;16.83;;;9.50;;
74495;SDS011;62979;55.720;37.606;2023-04-03T11:03:47;14.63;;;8.88;;
74495;SDS011;62979;55.720;37.606;2023-04-03T11:06:21;19.85;;;9.13;;
74495;SDS011;62979;55.720;37.606;2023-04-03T11:08:54;13.65;;;8.85;;
74495;SDS011;62979;55.720;37.606;2023-04-03T11:11:29;15.52;;;9.50;;
74495;SDS011;62979;55.720;37.606;2023-04-03T11:14:00;12.23;;;7.78;;
74495;SDS011;62979;55.720;37.606;2023-04-03T11:16:33;18.75;;;8.63;;
74495;SDS011;62979;55.720;37.606;2023-04-03T11:19:11;15.73;;;8.25;;
74495;SDS011;62979;55.720;37.606;2023-04-03T11:21:47;18.65;;;9.35;;
74495;SDS011;62979;55.720;37.606;2023-04-03T11:24:24;14.43;;;7.93;;
74495;SDS011;62979;55.720;37.606;2023-04-03T11:26:56;15.52;;;9.05;;
74495;SDS011;62979;55.720;37.606;2023-04-03T11:29:27;19.25;;;8.75;;
74495;SDS011;62979;55.720;37.606;2023-04-03T11:34:44;19.48;;;7.90;;
74495;SDS011;62979;55.720;37.606;2023-04-03T11:37:17;13.98;;;8.65;;
74495;SDS011;62979;55.720;37.606;2023-04-03T11:39:56;11.25;;;7.85;;
74495;SDS011;62979;55.720;37.606;2023-04-03T11:42:30;14.88;;;7.45;;
74495;SDS011;62979;55.720;37.606;2023-04-03T12:03:56;17.27;;;9.63;;
74495;SDS011;62979;55.720;37.606;2023-04-03T12:12:55;14.70;;;9.55;;
74495;SDS011;62979;55.720;37.606;2023-04-03T12:18:31;11.48;;;5.85;;
74495;SDS011;62979;55.720;37.606;2023-04-03T12:24:46;9.82;;;5.93;;
74495;SDS011;62979;55.720;37.606;2023-04-03T12:27:22;13.23;;;5.47;;
74495;SDS011;62979;55.720;37.606;2023-04-03T12:29:56;12.48;;;4.93;;
74495;SDS011;62979;55.720;37.606;2023-04-03T12:32:35;10.65;;;5.38;;
74495;SDS011;62979;55.720;37.606;2023-04-03T12:35:17;12.20;;;5.05;;
74495;SDS011;62979;55.720;37.606;2023-04-03T12:41:12;9.20;;;5.07;;
74495;SDS011;62979;55.720;37.606;2023-04-03T12:44:02;8.63;;;4.25;;
74495;SDS011;62979;55.720;37.606;2023-04-03T12:46:51;10.30;;;4.32;;
74495;SDS011;62979;55.720;37.606;2023-04-03T12:49:26;8.40;;;3.97;;
74495;SDS011;62979;55.720;37.606;2023-04-03T12:54:46;11.10;;;4.28;;
74495;SDS011;62979;55.720;37.606;2023-04-03T12:57:17;8.27;;;3.88;;
74495;SDS011;62979;55.720;37.606;2023-04-03T12:59:46;10.95;;;4.63;;
74495;SDS011;62979;55.720;37.606;2023-04-03T13:02:19;8.20;;;4.45;;
74495;SDS011;62979;55.720;37.606;2023-04-03T13:04:50;6.97;;;3.90;;
74495;SDS011;62979;55.720;37.606;2023-04-03T13:07:23;10.38;;;4.80;;
74495;SDS011;62979;55.720;37.606;2023-04-03T13:10:02;5.68;;;3.88;;
74495;SDS011;62979;55.720;37.606;2023-04-03T13:12:45;7.13;;;3.67;;
74495;SDS011;62979;55.720;37.606;2023-04-03T13:15:17;6.47;;;4.03;;
74495;SDS011;62979;55.720;37.606;2023-04-03T13:17:47;5.78;;;4.13;;
74495;SDS011;62979;55.720;37.606;2023-04-03T13:20:18;9.23;;;4.60;;
74495;SDS011;62979;55.720;37.606;2023-04-03T13:22:52;11.02;;;4.90;;
74495;SDS011;62979;55.720;37.606;2023-04-03T13:25:28;12.88;;;5.10;;
74495;SDS011;62979;55.720;37.606;2023-04-03T13:27:59;9.55;;;4.50;;
74495;SDS011;62979;55.720;37.606;2023-04-03T13:30:29;11.02;;;5.60;;
74495;SDS011;62979;55.720;37.606;2023-04-03T13:32:59;10.48;;;5.47;;
74495;SDS011;62979;55.720;37.606;2023-04-03T13:35:32;9.65;;;5.50;;
74495;SDS011;62979;55.720;37.606;2023-04-03T13:38:05;7.65;;;4.82;;
74495;SDS011;62979;55.720;37.606;2023-04-03T13:40:51;11.27;;;5.30;;
74495;SDS011;62979;55.720;37.606;2023-04-03T13:43:21;8.40;;;5.28;;
74495;SDS011;62979;55.720;37.606;2023-04-03T13:45:54;9.43;;;5.45;;
74495;SDS011;62979;55.720;37.606;2023-04-03T13:48:34;12.68;;;5.00;;
74495;SDS011;62979;55.720;37.606;2023-04-03T13:51:05;11.70;;;5.28;;
74495;SDS011;62979;55.720;37.606;2023-04-03T13:56:21;10.75;;;5.55;;
74495;SDS011;62979;55.720;37.606;2023-04-03T13:58:59;13.25;;;6.18;;
74495;SDS011;62979;55.720;37.606;2023-04-03T14:01:47;13.15;;;5.75;;
74495;SDS011;62979;55.720;37.606;2023-04-03T14:04:18;13.73;;;5.60;;
74495;SDS011;62979;55.720;37.606;2023-04-03T14:06:49;10.93;;;5.63;;
74495;SDS011;62979;55.720;37.606;2023-04-03T14:09:16;11.55;;;5.78;;
74495;SDS011;62979;55.720;37.606;2023-04-03T14:11:47;8.32;;;5.07;;
74495;SDS011;62979;55.720;37.606;2023-04-03T14:14:20;10.43;;;4.43;;
74495;SDS011;62979;55.720;37.606;2023-04-03T14:16:53;14.45;;;4.78;;
74495;SDS011;62979;55.720;37.606;2023-04-03T14:19:26;8.45;;;4.15;;
74495;SDS011;62979;55.720;37.606;2023-04-03T14:21:56;7.28;;;4.35;;
74495;SDS011;62979;55.720;37.606;2023-04-03T14:24:24;9.77;;;4.47;;
74495;SDS011;62979;55.720;37.606;2023-04-03T14:26:54;8.30;;;5.43;;
74495;SDS011;62979;55.720;37.606;2023-04-03T14:29:23;10.23;;;4.15;;
74495;SDS011;62979;55.720;37.606;2023-04-03T14:31:50;6.78;;;4.47;;
74495;SDS011;62979;55.720;37.606;2023-04-03T14:34:18;8.13;;;4.18;;
74495;SDS011;62979;55.720;37.606;2023-04-03T14:36:44;11.90;;;3.72;;
74495;SDS011;62979;55.720;37.606;2023-04-03T14:39:15;9.52;;;4.63;;
74495;SDS011;62979;55.720;37.606;2023-04-03T14:41:45;7.75;;;4.60;;
74495;SDS011;62979;55.720;37.606;2023-04-03T14:44:14;14.07;;;4.50;;
74495;SDS011;62979;55.720;37.606;2023-04-03T14:46:41;9.15;;;4.45;;
74495;SDS011;62979;55.720;37.606;2023-04-03T14:49:12;10.50;;;4.90;;
74495;SDS011;62979;55.720;37.606;2023-04-03T14:51:45;8.45;;;4.28;;
74495;SDS011;62979;55.720;37.606;2023-04-03T14:54:13;8.23;;;4.85;;
74495;SDS011;62979;55.720;37.606;2023-04-03T14:56:46;6.47;;;4.32;;
74495;SDS011;62979;55.720;37.606;2023-04-03T14:59:15;6.88;;;4.47;;
74495;SDS011;62979;55.720;37.606;2023-04-03T15:01:45;8.90;;;5.50;;
74495;SDS011;62979;55.720;37.606;2023-04-03T15:04:12;6.53;;;4.82;;
74495;SDS011;62979;55.720;37.606;2023-04-03T15:06:41;10.18;;;5.00;;
74495;SDS011;62979;55.720;37.606;2023-04-03T15:09:12;11.02;;;5.93;;
74495;SDS011;62979;55.720;37.606;2023-04-03T15:11:47;8.63;;;4.80;;
74495;SDS011;62979;55.720;37.606;2023-04-03T15:14:16;9.88;;;5.30;;
74495;SDS011;62979;55.720;37.606;2023-04-03T15:16:43;11.43;;;5.55;;
74495;SDS011;62979;55.720;37.606;2023-04-03T15:19:11;11.13;;;5.65;;
74495;SDS011;62979;55.720;37.606;2023-04-03T15:21:38;11.63;;;4.97;;
74495;SDS011;62979;55.720;37.606;2023-04-03T15:24:06;16.27;;;5.80;;
74495;SDS011;62979;55.720;37.606;2023-04-03T15:26:32;10.40;;;5.38;;
74495;SDS011;62979;55.720;37.606;2023-04-03T15:28:59;10.50;;;5.75;;
74495;SDS011;62979;55.720;37.606;2023-04-03T15:31:28;8.07;;;5.68;;
74495;SDS011;62979;55.720;37.606;2023-04-03T15:33:55;7.60;;;4.82;;
74495;SDS011;62979;55.720;37.606;2023-04-03T15:36:22;10.98;;;4.93;;
74495;SDS011;62979;55.720;37.606;2023-04-03T15:38:49;6.80;;;5.18;;
74495;SDS011;62979;55.720;37.606;2023-04-03T15:41:16;17.35;;;6.03;;
74495;SDS011;62979;55.720;37.606;2023-04-03T15:43:43;11.23;;;5.47;;
74495;SDS011;62979;55.720;37.606;2023-04-03T15:46:10;9.85;;;5.45;;
74495;SDS011;62979;55.720;37.606;2023-04-03T15:48:40;12.82;;;5.85;;
74495;SDS011;62979;55.720;37.606;2023-04-03T15:51:07;12.95;;;5.90;;
74495;SDS011;62979;55.720;37.606;2023-04-03T15:53:34;15.32;;;5.40;;